CMA CGM Herodote — MFEP — position and weather

sailwx.info

Track history (hours):
 
Tides and Currents Weather Stations Pressure Air Temp Water Temp Dewpoint Dewpoint Depression Visibility Wind Speed Wind Dir Waves Ship Positions

CMA CGM Herodote

Last reported at 2017-Jun-22 04:39 UTC. Time now 2017-Jun-22 18:40 UTC.
Position N 34°02' E 020°31'.

Length 170 m; draft 7.8 m.

Type: Cargo ship. MMSI: 235051085.

Date/timePositionNaut miles runAvg speedWind from/ knotsBaromVisibWave heightAir tempDewpointWater temp
2017-Jun-22 04:39N 34°02' E 020°31'  
2017-Jun-19 08:47N 32°55' E 032°46'1616.2
2017-Jun-19 07:47N 33°02' E 033°04'616.5
2017-Jun-19 07:25N 33°05' E 033°10'716.6
2017-Jun-19 07:01N 33°08' E 033°17'1016.8
2017-Jun-19 06:25N 33°12' E 033°28'817.0
2017-Jun-19 05:56N 33°16' E 033°37'716.8
2017-Jun-19 05:29N 33°19' E 033°45'816.5
2017-Jun-19 05:00N 33°23' E 033°54'816.6
2017-Jun-19 04:30N 33°26' E 034°02'816.3
2017-Jun-19 04:00N 33°30' E 034°11'816.3
2017-Jun-19 03:31N 33°34' E 034°20'1116.4
2017-Jun-19 02:51N 33°38' E 034°31'816.6
2017-Jun-19 02:24N 33°41' E 034°40'716.6
2017-Jun-19 02:00N 33°44' E 034°47'916.6
2017-Jun-19 01:29N 33°49' E 034°56'816.7
2017-Jun-19 01:00N 33°52' E 035°05'816.5
2017-Jun-19 00:30N 33°55' E 035°14'816.8
2017-Jun-19 00:00N 33°56' E 035°24'9 0.3
2017-Jun-17 15:04N 33°57' E 035°34'0 0.0
2017-Jun-17 13:04N 33°57' E 035°34'0 0.0
2017-Jun-17 12:55N 33°57' E 035°34'0 0.0
2017-Jun-17 06:53N 33°57' E 035°34'0 0.0
2017-Jun-17 06:10N 33°57' E 035°34'0 0.0
2017-Jun-17 03:08N 33°57' E 035°34'0 0.0
2017-Jun-17 02:10N 33°57' E 035°34'0 0.0
2017-Jun-17 01:52N 33°57' E 035°34'0 0.0
2017-Jun-17 01:29N 33°57' E 035°34'0 0.0
2017-Jun-17 00:58N 33°57' E 035°34'0 0.0
2017-Jun-17 00:16N 33°57' E 035°34'0 0.0
2017-Jun-16 23:58N 33°57' E 035°34'0 0.0
2017-Jun-16 23:01N 33°57' E 035°34'9 3.3
2017-Jun-16 20:09N 33°56' E 035°23'212.9
2017-Jun-16 19:59N 33°56' E 035°20'612.6
2017-Jun-16 19:31N 33°56' E 035°13'816.7
2017-Jun-16 19:00N 34°04' E 035°12'917.7
2017-Jun-16 18:30N 34°13' E 035°11'918.5
2017-Jun-16 18:00N 34°22' E 035°09'1518.5
2017-Jun-16 17:12N 34°37' E 035°07'418.3
2017-Jun-16 17:00N 34°40' E 035°07'  
Track history (hours):
 
Tides and Currents Weather Stations Pressure Air Temp Water Temp Dewpoint Dewpoint Depression Visibility Wind Speed Wind Dir Waves Ship Positions

CMA CGM Herodote

Last reported at 2017-Jun-22 04:39 UTC. Time now 2017-Jun-22 18:40 UTC.
Position N 34°02' E 020°31'.

Length 170 m; draft 7.8 m.

Type: Cargo ship. MMSI: 235051085.

Date/timePositionNaut miles runAvg speedWind from/ knotsBaromVisibWave heightAir tempDewpointWater temp
2017-Jun-22 04:39N 34°02' E 020°31'  
2017-Jun-19 08:47N 32°55' E 032°46'1616.2
2017-Jun-19 07:47N 33°02' E 033°04'616.5
2017-Jun-19 07:25N 33°05' E 033°10'716.6
2017-Jun-19 07:01N 33°08' E 033°17'1016.8
2017-Jun-19 06:25N 33°12' E 033°28'817.0
2017-Jun-19 05:56N 33°16' E 033°37'716.8
2017-Jun-19 05:29N 33°19' E 033°45'816.5
2017-Jun-19 05:00N 33°23' E 033°54'816.6
2017-Jun-19 04:30N 33°26' E 034°02'816.3
2017-Jun-19 04:00N 33°30' E 034°11'816.3
2017-Jun-19 03:31N 33°34' E 034°20'1116.4
2017-Jun-19 02:51N 33°38' E 034°31'816.6
2017-Jun-19 02:24N 33°41' E 034°40'716.6
2017-Jun-19 02:00N 33°44' E 034°47'916.6
2017-Jun-19 01:29N 33°49' E 034°56'816.7
2017-Jun-19 01:00N 33°52' E 035°05'816.5
2017-Jun-19 00:30N 33°55' E 035°14'816.8
2017-Jun-19 00:00N 33°56' E 035°24'9 0.3
2017-Jun-17 15:04N 33°57' E 035°34'0 0.0
2017-Jun-17 13:04N 33°57' E 035°34'0 0.0
2017-Jun-17 12:55N 33°57' E 035°34'0 0.0
2017-Jun-17 06:53N 33°57' E 035°34'0 0.0
2017-Jun-17 06:10N 33°57' E 035°34'0 0.0
2017-Jun-17 03:08N 33°57' E 035°34'0 0.0
2017-Jun-17 02:10N 33°57' E 035°34'0 0.0
2017-Jun-17 01:52N 33°57' E 035°34'0 0.0
2017-Jun-17 01:29N 33°57' E 035°34'0 0.0
2017-Jun-17 00:58N 33°57' E 035°34'0 0.0
2017-Jun-17 00:16N 33°57' E 035°34'0 0.0
2017-Jun-16 23:58N 33°57' E 035°34'0 0.0
2017-Jun-16 23:01N 33°57' E 035°34'9 3.3
2017-Jun-16 20:09N 33°56' E 035°23'212.9
2017-Jun-16 19:59N 33°56' E 035°20'612.6
2017-Jun-16 19:31N 33°56' E 035°13'816.7
2017-Jun-16 19:00N 34°04' E 035°12'917.7
2017-Jun-16 18:30N 34°13' E 035°11'918.5
2017-Jun-16 18:00N 34°22' E 035°09'1518.5
2017-Jun-16 17:12N 34°37' E 035°07'418.3
2017-Jun-16 17:00N 34°40' E 035°07'  

Dump ship's entire track history